sensor_id;sensor_type;location;lat;lon;timestamp;P1;durP1;ratioP1;P2;durP2;ratioP2
7829;SDS011;3960;51.86894000;5.39848000;2023-06-19T00:00:30;11.32;;;6.80;;
7829;SDS011;3960;51.86894000;5.39848000;2023-06-19T00:02:59;11.55;;;6.97;;
7829;SDS011;3960;51.86894000;5.39848000;2023-06-19T00:05:33;11.93;;;7.38;;
7829;SDS011;3960;51.86894000;5.39848000;2023-06-19T00:07:59;9.30;;;7.18;;
7829;SDS011;3960;51.86894000;5.39848000;2023-06-19T00:10:31;12.05;;;6.78;;
7829;SDS011;3960;51.86894000;5.39848000;2023-06-19T00:13:05;8.13;;;6.90;;
7829;SDS011;3960;51.86894000;5.39848000;2023-06-19T00:15:33;9.05;;;6.80;;
7829;SDS011;3960;51.86894000;5.39848000;2023-06-19T00:18:01;12.88;;;7.00;;
7829;SDS011;3960;51.86894000;5.39848000;2023-06-19T00:20:36;8.02;;;6.57;;
7829;SDS011;3960;51.86894000;5.39848000;2023-06-19T00:23:04;10.15;;;6.78;;
7829;SDS011;3960;51.86894000;5.39848000;2023-06-19T00:25:33;8.20;;;6.80;;
7829;SDS011;3960;51.86894000;5.39848000;2023-06-19T00:28:08;7.35;;;6.60;;
7829;SDS011;3960;51.86894000;5.39848000;2023-06-19T00:30:39;8.40;;;6.68;;
7829;SDS011;3960;51.86894000;5.39848000;2023-06-19T00:33:14;8.52;;;6.88;;
7829;SDS011;3960;51.86894000;5.39848000;2023-06-19T00:36:08;10.00;;;6.38;;
7829;SDS011;3960;51.86894000;5.39848000;2023-06-19T00:38:34;7.55;;;6.32;;
7829;SDS011;3960;51.86894000;5.39848000;2023-06-19T00:41:03;9.10;;;5.82;;
7829;SDS011;3960;51.86894000;5.39848000;2023-06-19T00:43:39;8.30;;;5.82;;
7829;SDS011;3960;51.86894000;5.39848000;2023-06-19T00:46:07;10.80;;;5.68;;
7829;SDS011;3960;51.86894000;5.39848000;2023-06-19T00:48:41;11.77;;;5.53;;
7829;SDS011;3960;51.86894000;5.39848000;2023-06-19T00:51:29;6.97;;;5.07;;
7829;SDS011;3960;51.86894000;5.39848000;2023-06-19T00:54:03;7.47;;;5.30;;
7829;SDS011;3960;51.86894000;5.39848000;2023-06-19T00:56:32;5.60;;;4.55;;
7829;SDS011;3960;51.86894000;5.39848000;2023-06-19T00:59:04;6.25;;;4.82;;
7829;SDS011;3960;51.86894000;5.39848000;2023-06-19T01:01:32;5.18;;;3.85;;
7829;SDS011;3960;51.86894000;5.39848000;2023-06-19T01:04:01;6.68;;;4.53;;
7829;SDS011;3960;51.86894000;5.39848000;2023-06-19T01:06:35;4.95;;;3.72;;
7829;SDS011;3960;51.86894000;5.39848000;2023-06-19T01:09:10;5.03;;;3.67;;
7829;SDS011;3960;51.86894000;5.39848000;2023-06-19T01:11:52;5.25;;;3.80;;
7829;SDS011;3960;51.86894000;5.39848000;2023-06-19T01:14:38;5.15;;;3.70;;
7829;SDS011;3960;51.86894000;5.39848000;2023-06-19T01:17:17;7.32;;;3.80;;
7829;SDS011;3960;51.86894000;5.39848000;2023-06-19T01:19:54;4.25;;;3.50;;
7829;SDS011;3960;51.86894000;5.39848000;2023-06-19T01:22:31;4.80;;;3.38;;
7829;SDS011;3960;51.86894000;5.39848000;2023-06-19T01:24:59;5.70;;;3.50;;
7829;SDS011;3960;51.86894000;5.39848000;2023-06-19T01:27:29;4.00;;;3.33;;
7829;SDS011;3960;51.86894000;5.39848000;2023-06-19T01:29:55;5.15;;;3.50;;
7829;SDS011;3960;51.86894000;5.39848000;2023-06-19T01:32:44;5.32;;;3.22;;
7829;SDS011;3960;51.86894000;5.39848000;2023-06-19T01:35:30;4.38;;;3.55;;
7829;SDS011;3960;51.86894000;5.39848000;2023-06-19T01:37:59;5.47;;;3.80;;
7829;SDS011;3960;51.86894000;5.39848000;2023-06-19T01:40:27;4.75;;;3.58;;
7829;SDS011;3960;51.86894000;5.39848000;2023-06-19T01:42:56;4.97;;;3.50;;
7829;SDS011;3960;51.86894000;5.39848000;2023-06-19T01:45:28;5.03;;;3.60;;
7829;SDS011;3960;51.86894000;5.39848000;2023-06-19T01:47:54;7.22;;;3.15;;
7829;SDS011;3960;51.86894000;5.39848000;2023-06-19T01:50:24;4.40;;;2.70;;
7829;SDS011;3960;51.86894000;5.39848000;2023-06-19T01:52:58;3.58;;;2.75;;
7829;SDS011;3960;51.86894000;5.39848000;2023-06-19T01:55:24;5.40;;;2.83;;
7829;SDS011;3960;51.86894000;5.39848000;2023-06-19T01:57:49;3.88;;;3.13;;
7829;SDS011;3960;51.86894000;5.39848000;2023-06-19T02:00:18;7.20;;;2.80;;
7829;SDS011;3960;51.86894000;5.39848000;2023-06-19T02:02:49;3.55;;;2.80;;
7829;SDS011;3960;51.86894000;5.39848000;2023-06-19T02:05:27;5.63;;;3.03;;
7829;SDS011;3960;51.86894000;5.39848000;2023-06-19T02:07:57;4.63;;;2.92;;
7829;SDS011;3960;51.86894000;5.39848000;2023-06-19T02:10:26;3.75;;;2.80;;
7829;SDS011;3960;51.86894000;5.39848000;2023-06-19T02:13:00;3.35;;;2.40;;
7829;SDS011;3960;51.86894000;5.39848000;2023-06-19T02:15:31;4.10;;;2.63;;
7829;SDS011;3960;51.86894000;5.39848000;2023-06-19T02:18:06;3.05;;;2.40;;
7829;SDS011;3960;51.86894000;5.39848000;2023-06-19T02:20:40;4.32;;;2.85;;
7829;SDS011;3960;51.86894000;5.39848000;2023-06-19T02:23:05;4.30;;;2.30;;
7829;SDS011;3960;51.86894000;5.39848000;2023-06-19T02:25:31;2.92;;;2.33;;
7829;SDS011;3960;51.86894000;5.39848000;2023-06-19T02:28:00;4.47;;;2.17;;
7829;SDS011;3960;51.86894000;5.39848000;2023-06-19T02:30:25;3.97;;;2.35;;
7829;SDS011;3960;51.86894000;5.39848000;2023-06-19T02:32:54;3.58;;;2.60;;
7829;SDS011;3960;51.86894000;5.39848000;2023-06-19T02:35:28;4.05;;;2.70;;
7829;SDS011;3960;51.86894000;5.39848000;2023-06-19T02:38:01;3.88;;;2.58;;
7829;SDS011;3960;51.86894000;5.39848000;2023-06-19T02:40:29;3.03;;;2.47;;
7829;SDS011;3960;51.86894000;5.39848000;2023-06-19T02:42:55;5.18;;;2.38;;
7829;SDS011;3960;51.86894000;5.39848000;2023-06-19T02:45:26;3.53;;;2.25;;
7829;SDS011;3960;51.86894000;5.39848000;2023-06-19T02:47:54;4.15;;;2.50;;
7829;SDS011;3960;51.86894000;5.39848000;2023-06-19T02:50:25;2.92;;;2.60;;
7829;SDS011;3960;51.86894000;5.39848000;2023-06-19T02:52:59;4.28;;;2.60;;
7829;SDS011;3960;51.86894000;5.39848000;2023-06-19T02:55:27;3.13;;;2.50;;
7829;SDS011;3960;51.86894000;5.39848000;2023-06-19T02:57:58;3.95;;;2.50;;
7829;SDS011;3960;51.86894000;5.39848000;2023-06-19T03:00:24;3.17;;;2.47;;
7829;SDS011;3960;51.86894000;5.39848000;2023-06-19T03:02:53;4.32;;;2.70;;
7829;SDS011;3960;51.86894000;5.39848000;2023-06-19T03:05:19;9.65;;;3.17;;
7829;SDS011;3960;51.86894000;5.39848000;2023-06-19T03:07:53;4.07;;;3.17;;
7829;SDS011;3960;51.86894000;5.39848000;2023-06-19T03:10:22;4.72;;;2.67;;
7829;SDS011;3960;51.86894000;5.39848000;2023-06-19T03:13:08;24.73;;;19.42;;
7829;SDS011;3960;51.86894000;5.39848000;2023-06-19T03:15:39;68.70;;;49.15;;
7829;SDS011;3960;51.86894000;5.39848000;2023-06-19T03:18:10;38.83;;;29.70;;
7829;SDS011;3960;51.86894000;5.39848000;2023-06-19T03:20:35;24.83;;;19.67;;
7829;SDS011;3960;51.86894000;5.39848000;2023-06-19T03:23:01;27.55;;;22.00;;
7829;SDS011;3960;51.86894000;5.39848000;2023-06-19T03:25:27;37.92;;;31.10;;
7829;SDS011;3960;51.86894000;5.39848000;2023-06-19T03:28:06;32.15;;;25.23;;
7829;SDS011;3960;51.86894000;5.39848000;2023-06-19T03:30:31;40.30;;;33.70;;
7829;SDS011;3960;51.86894000;5.39848000;2023-06-19T03:32:57;35.45;;;27.70;;
7829;SDS011;3960;51.86894000;5.39848000;2023-06-19T03:35:24;34.22;;;25.10;;
7829;SDS011;3960;51.86894000;5.39848000;2023-06-19T03:37:50;62.78;;;48.85;;
7829;SDS011;3960;51.86894000;5.39848000;2023-06-19T03:40:15;41.33;;;34.70;;
7829;SDS011;3960;51.86894000;5.39848000;2023-06-19T03:42:43;49.70;;;40.33;;
7829;SDS011;3960;51.86894000;5.39848000;2023-06-19T03:45:11;15.95;;;12.32;;
7829;SDS011;3960;51.86894000;5.39848000;2023-06-19T03:47:37;22.92;;;17.27;;
7829;SDS011;3960;51.86894000;5.39848000;2023-06-19T03:50:05;51.17;;;36.47;;
7829;SDS011;3960;51.86894000;5.39848000;2023-06-19T03:52:34;28.90;;;20.05;;
7829;SDS011;3960;51.86894000;5.39848000;2023-06-19T03:55:00;23.08;;;17.13;;
7829;SDS011;3960;51.86894000;5.39848000;2023-06-19T03:57:26;15.05;;;10.70;;
7829;SDS011;3960;51.86894000;5.39848000;2023-06-19T03:59:55;8.02;;;6.15;;
7829;SDS011;3960;51.86894000;5.39848000;2023-06-19T04:02:23;7.43;;;4.85;;
7829;SDS011;3960;51.86894000;5.39848000;2023-06-19T04:04:49;10.02;;;7.32;;
7829;SDS011;3960;51.86894000;5.39848000;2023-06-19T04:07:17;12.98;;;7.82;;
7829;SDS011;3960;51.86894000;5.39848000;2023-06-19T04:09:42;5.80;;;4.28;;
7829;SDS011;3960;51.86894000;5.39848000;2023-06-19T04:12:08;8.55;;;4.90;;
7829;SDS011;3960;51.86894000;5.39848000;2023-06-19T04:14:34;11.57;;;4.82;;
7829;SDS011;3960;51.86894000;5.39848000;2023-06-19T04:16:59;6.65;;;3.90;;
7829;SDS011;3960;51.86894000;5.39848000;2023-06-19T04:19:24;6.50;;;3.70;;
7829;SDS011;3960;51.86894000;5.39848000;2023-06-19T04:21:50;5.30;;;3.90;;
7829;SDS011;3960;51.86894000;5.39848000;2023-06-19T04:24:15;4.93;;;4.28;;
7829;SDS011;3960;51.86894000;5.39848000;2023-06-19T04:26:41;5.72;;;4.20;;
7829;SDS011;3960;51.86894000;5.39848000;2023-06-19T04:29:07;5.13;;;4.20;;
7829;SDS011;3960;51.86894000;5.39848000;2023-06-19T04:31:33;5.95;;;4.78;;
7829;SDS011;3960;51.86894000;5.39848000;2023-06-19T04:34:08;6.60;;;4.47;;
7829;SDS011;3960;51.86894000;5.39848000;2023-06-19T04:36:37;6.65;;;4.90;;
7829;SDS011;3960;51.86894000;5.39848000;2023-06-19T04:39:07;6.32;;;4.80;;
7829;SDS011;3960;51.86894000;5.39848000;2023-06-19T04:41:33;6.88;;;4.90;;
7829;SDS011;3960;51.86894000;5.39848000;2023-06-19T04:43:58;6.95;;;4.70;;
7829;SDS011;3960;51.86894000;5.39848000;2023-06-19T04:46:28;6.90;;;4.47;;
7829;SDS011;3960;51.86894000;5.39848000;2023-06-19T04:48:53;6.20;;;4.80;;
7829;SDS011;3960;51.86894000;5.39848000;2023-06-19T04:51:22;9.02;;;4.95;;
7829;SDS011;3960;51.86894000;5.39848000;2023-06-19T04:53:54;6.35;;;5.13;;
7829;SDS011;3960;51.86894000;5.39848000;2023-06-19T04:56:40;9.15;;;5.10;;
7829;SDS011;3960;51.86894000;5.39848000;2023-06-19T04:59:05;8.18;;;5.38;;
7829;SDS011;3960;51.86894000;5.39848000;2023-06-19T05:01:31;10.02;;;5.95;;
7829;SDS011;3960;51.86894000;5.39848000;2023-06-19T05:03:58;8.25;;;5.65;;
7829;SDS011;3960;51.86894000;5.39848000;2023-06-19T05:06:24;9.25;;;6.60;;
7829;SDS011;3960;51.86894000;5.39848000;2023-06-19T05:08:51;11.90;;;6.75;;
7829;SDS011;3960;51.86894000;5.39848000;2023-06-19T05:11:17;9.70;;;7.03;;
7829;SDS011;3960;51.86894000;5.39848000;2023-06-19T05:13:42;16.88;;;8.00;;
7829;SDS011;3960;51.86894000;5.39848000;2023-06-19T05:16:08;8.93;;;7.15;;
7829;SDS011;3960;51.86894000;5.39848000;2023-06-19T05:18:36;10.52;;;7.35;;
7829;SDS011;3960;51.86894000;5.39848000;2023-06-19T05:21:02;9.82;;;7.25;;
7829;SDS011;3960;51.86894000;5.39848000;2023-06-19T05:23:27;10.02;;;7.85;;
7829;SDS011;3960;51.86894000;5.39848000;2023-06-19T05:25:53;11.52;;;7.47;;
7829;SDS011;3960;51.86894000;5.39848000;2023-06-19T05:28:24;9.48;;;7.43;;
7829;SDS011;3960;51.86894000;5.39848000;2023-06-19T05:30:52;10.07;;;7.28;;
7829;SDS011;3960;51.86894000;5.39848000;2023-06-19T05:33:27;13.75;;;7.75;;
7829;SDS011;3960;51.86894000;5.39848000;2023-06-19T05:36:07;8.18;;;7.10;;
7829;SDS011;3960;51.86894000;5.39848000;2023-06-19T05:38:44;9.27;;;7.10;;
7829;SDS011;3960;51.86894000;5.39848000;2023-06-19T05:41:19;7.50;;;6.68;;
7829;SDS011;3960;51.86894000;5.39848000;2023-06-19T05:44:07;7.80;;;6.63;;
7829;SDS011;3960;51.86894000;5.39848000;2023-06-19T05:46:35;7.15;;;5.80;;
7829;SDS011;3960;51.86894000;5.39848000;2023-06-19T05:49:02;9.23;;;5.25;;
7829;SDS011;3960;51.86894000;5.39848000;2023-06-19T05:51:43;8.93;;;5.90;;
7829;SDS011;3960;51.86894000;5.39848000;2023-06-19T05:54:16;10.07;;;4.68;;
7829;SDS011;3960;51.86894000;5.39848000;2023-06-19T05:56:49;8.45;;;4.68;;
7829;SDS011;3960;51.86894000;5.39848000;2023-06-19T05:59:43;5.80;;;4.28;;
7829;SDS011;3960;51.86894000;5.39848000;2023-06-19T06:02:22;5.82;;;4.40;;
7829;SDS011;3960;51.86894000;5.39848000;2023-06-19T06:05:07;6.63;;;4.00;;
7829;SDS011;3960;51.86894000;5.39848000;2023-06-19T06:07:50;5.10;;;3.72;;
7829;SDS011;3960;51.86894000;5.39848000;2023-06-19T06:11:02;4.15;;;3.13;;
7829;SDS011;3960;51.86894000;5.39848000;2023-06-19T06:13:40;4.60;;;3.63;;
7829;SDS011;3960;51.86894000;5.39848000;2023-06-19T06:16:06;4.63;;;3.58;;
7829;SDS011;3960;51.86894000;5.39848000;2023-06-19T06:18:51;8.88;;;3.60;;
7829;SDS011;3960;51.86894000;5.39848000;2023-06-19T06:21:31;4.88;;;3.70;;
7829;SDS011;3960;51.86894000;5.39848000;2023-06-19T06:24:04;5.10;;;3.65;;
7829;SDS011;3960;51.86894000;5.39848000;2023-06-19T06:26:32;5.05;;;4.00;;
7829;SDS011;3960;51.86894000;5.39848000;2023-06-19T06:28:58;6.43;;;4.20;;
7829;SDS011;3960;51.86894000;5.39848000;2023-06-19T06:31:23;5.10;;;4.30;;
7829;SDS011;3960;51.86894000;5.39848000;2023-06-19T06:33:51;5.28;;;4.68;;
7829;SDS011;3960;51.86894000;5.39848000;2023-06-19T06:36:17;7.00;;;5.80;;
7829;SDS011;3960;51.86894000;5.39848000;2023-06-19T06:38:44;7.43;;;5.03;;
7829;SDS011;3960;51.86894000;5.39848000;2023-06-19T06:41:10;15.43;;;6.57;;
7829;SDS011;3960;51.86894000;5.39848000;2023-06-19T06:43:35;7.28;;;5.55;;
7829;SDS011;3960;51.86894000;5.39848000;2023-06-19T06:46:00;8.52;;;6.38;;
7829;SDS011;3960;51.86894000;5.39848000;2023-06-19T06:48:26;8.93;;;7.18;;
7829;SDS011;3960;51.86894000;5.39848000;2023-06-19T06:50:51;10.93;;;7.38;;
7829;SDS011;3960;51.86894000;5.39848000;2023-06-19T06:53:24;9.38;;;8.20;;
7829;SDS011;3960;51.86894000;5.39848000;2023-06-19T06:55:50;11.77;;;8.23;;
7829;SDS011;3960;51.86894000;5.39848000;2023-06-19T06:58:15;10.90;;;8.27;;
7829;SDS011;3960;51.86894000;5.39848000;2023-06-19T07:00:42;9.60;;;8.25;;
7829;SDS011;3960;51.86894000;5.39848000;2023-06-19T07:03:08;10.77;;;7.72;;
7829;SDS011;3960;51.86894000;5.39848000;2023-06-19T07:05:33;9.35;;;8.02;;
7829;SDS011;3960;51.86894000;5.39848000;2023-06-19T07:07:58;10.55;;;8.40;;
7829;SDS011;3960;51.86894000;5.39848000;2023-06-19T07:10:24;9.68;;;7.65;;
7829;SDS011;3960;51.86894000;5.39848000;2023-06-19T07:12:49;9.10;;;7.30;;
7829;SDS011;3960;51.86894000;5.39848000;2023-06-19T07:15:16;13.20;;;8.55;;
7829;SDS011;3960;51.86894000;5.39848000;2023-06-19T07:17:42;10.10;;;8.43;;
7829;SDS011;3960;51.86894000;5.39848000;2023-06-19T07:20:09;10.95;;;8.02;;
7829;SDS011;3960;51.86894000;5.39848000;2023-06-19T07:22:34;11.30;;;8.63;;
7829;SDS011;3960;51.86894000;5.39848000;2023-06-19T07:25:00;9.40;;;8.18;;
7829;SDS011;3960;51.86894000;5.39848000;2023-06-19T07:27:25;11.18;;;8.05;;
7829;SDS011;3960;51.86894000;5.39848000;2023-06-19T07:29:53;12.13;;;8.73;;
7829;SDS011;3960;51.86894000;5.39848000;2023-06-19T07:32:19;12.57;;;8.38;;
7829;SDS011;3960;51.86894000;5.39848000;2023-06-19T07:34:45;10.43;;;8.27;;
7829;SDS011;3960;51.86894000;5.39848000;2023-06-19T07:37:10;10.43;;;8.77;;
7829;SDS011;3960;51.86894000;5.39848000;2023-06-19T07:39:42;11.05;;;8.57;;
7829;SDS011;3960;51.86894000;5.39848000;2023-06-19T07:42:11;10.25;;;8.05;;
7829;SDS011;3960;51.86894000;5.39848000;2023-06-19T07:44:38;12.63;;;8.98;;
7829;SDS011;3960;51.86894000;5.39848000;2023-06-19T07:47:03;11.60;;;9.02;;
7829;SDS011;3960;51.86894000;5.39848000;2023-06-19T07:49:28;11.55;;;9.00;;
7829;SDS011;3960;51.86894000;5.39848000;2023-06-19T07:51:54;13.82;;;9.85;;
7829;SDS011;3960;51.86894000;5.39848000;2023-06-19T07:54:19;13.70;;;9.15;;
7829;SDS011;3960;51.86894000;5.39848000;2023-06-19T07:56:44;11.82;;;8.70;;
7829;SDS011;3960;51.86894000;5.39848000;2023-06-19T07:59:10;12.00;;;9.05;;
7829;SDS011;3960;51.86894000;5.39848000;2023-06-19T08:01:35;14.98;;;9.43;;
7829;SDS011;3960;51.86894000;5.39848000;2023-06-19T08:04:00;10.95;;;8.85;;
7829;SDS011;3960;51.86894000;5.39848000;2023-06-19T08:06:25;12.57;;;8.48;;
7829;SDS011;3960;51.86894000;5.39848000;2023-06-19T08:08:51;10.52;;;8.13;;
7829;SDS011;3960;51.86894000;5.39848000;2023-06-19T08:11:16;11.50;;;8.95;;
7829;SDS011;3960;51.86894000;5.39848000;2023-06-19T08:13:42;12.27;;;8.48;;
7829;SDS011;3960;51.86894000;5.39848000;2023-06-19T08:16:07;12.80;;;9.30;;
7829;SDS011;3960;51.86894000;5.39848000;2023-06-19T08:18:33;12.00;;;8.85;;
7829;SDS011;3960;51.86894000;5.39848000;2023-06-19T08:20:58;12.10;;;8.48;;
7829;SDS011;3960;51.86894000;5.39848000;2023-06-19T08:23:24;13.00;;;9.30;;
7829;SDS011;3960;51.86894000;5.39848000;2023-06-19T08:25:49;14.23;;;10.48;;
7829;SDS011;3960;51.86894000;5.39848000;2023-06-19T08:28:16;9.98;;;8.25;;
7829;SDS011;3960;51.86894000;5.39848000;2023-06-19T08:30:42;12.52;;;8.77;;
7829;SDS011;3960;51.86894000;5.39848000;2023-06-19T08:33:09;10.15;;;9.05;;
7829;SDS011;3960;51.86894000;5.39848000;2023-06-19T08:35:41;11.45;;;8.93;;
7829;SDS011;3960;51.86894000;5.39848000;2023-06-19T08:40:32;13.60;;;9.35;;
7829;SDS011;3960;51.86894000;5.39848000;2023-06-19T08:42:58;11.65;;;9.15;;
7829;SDS011;3960;51.86894000;5.39848000;2023-06-19T08:45:25;12.23;;;9.60;;
7829;SDS011;3960;51.86894000;5.39848000;2023-06-19T08:48:00;10.02;;;9.02;;
7829;SDS011;3960;51.86894000;5.39848000;2023-06-19T08:50:28;13.48;;;9.52;;
7829;SDS011;3960;51.86894000;5.39848000;2023-06-19T08:52:55;12.02;;;8.90;;
7829;SDS011;3960;51.86894000;5.39848000;2023-06-19T08:55:23;10.68;;;9.13;;
7829;SDS011;3960;51.86894000;5.39848000;2023-06-19T08:57:49;10.68;;;8.70;;
7829;SDS011;3960;51.86894000;5.39848000;2023-06-19T09:00:30;14.02;;;9.52;;
7829;SDS011;3960;51.86894000;5.39848000;2023-06-19T09:03:00;12.50;;;10.40;;
7829;SDS011;3960;51.86894000;5.39848000;2023-06-19T09:05:27;11.57;;;9.20;;
7829;SDS011;3960;51.86894000;5.39848000;2023-06-19T09:07:56;12.98;;;9.70;;
7829;SDS011;3960;51.86894000;5.39848000;2023-06-19T09:10:23;13.57;;;10.15;;
7829;SDS011;3960;51.86894000;5.39848000;2023-06-19T09:12:55;12.40;;;9.52;;
7829;SDS011;3960;51.86894000;5.39848000;2023-06-19T09:15:22;11.98;;;10.13;;
7829;SDS011;3960;51.86894000;5.39848000;2023-06-19T09:17:58;10.93;;;9.70;;
7829;SDS011;3960;51.86894000;5.39848000;2023-06-19T09:20:34;16.98;;;10.43;;
7829;SDS011;3960;51.86894000;5.39848000;2023-06-19T09:23:09;11.70;;;10.48;;
7829;SDS011;3960;51.86894000;5.39848000;2023-06-19T09:28:16;15.15;;;10.70;;
7829;SDS011;3960;51.86894000;5.39848000;2023-06-19T09:30:52;14.85;;;10.05;;
7829;SDS011;3960;51.86894000;5.39848000;2023-06-19T09:33:18;12.45;;;10.77;;
7829;SDS011;3960;51.86894000;5.39848000;2023-06-19T09:35:46;12.77;;;10.35;;
7829;SDS011;3960;51.86894000;5.39848000;2023-06-19T09:38:13;12.90;;;11.02;;
7829;SDS011;3960;51.86894000;5.39848000;2023-06-19T09:40:40;17.25;;;10.52;;
7829;SDS011;3960;51.86894000;5.39848000;2023-06-19T09:43:06;17.90;;;10.15;;
7829;SDS011;3960;51.86894000;5.39848000;2023-06-19T09:45:32;11.75;;;10.23;;
7829;SDS011;3960;51.86894000;5.39848000;2023-06-19T09:47:58;13.98;;;10.02;;
7829;SDS011;3960;51.86894000;5.39848000;2023-06-19T09:50:26;13.93;;;10.38;;
7829;SDS011;3960;51.86894000;5.39848000;2023-06-19T09:52:54;12.15;;;10.00;;
7829;SDS011;3960;51.86894000;5.39848000;2023-06-19T09:55:20;13.60;;;9.02;;
7829;SDS011;3960;51.86894000;5.39848000;2023-06-19T09:57:49;11.05;;;9.25;;
7829;SDS011;3960;51.86894000;5.39848000;2023-06-19T10:00:15;11.57;;;10.38;;
7829;SDS011;3960;51.86894000;5.39848000;2023-06-19T10:02:46;12.07;;;8.80;;
7829;SDS011;3960;51.86894000;5.39848000;2023-06-19T10:05:13;11.15;;;9.90;;
7829;SDS011;3960;51.86894000;5.39848000;2023-06-19T10:07:41;11.48;;;10.35;;
7829;SDS011;3960;51.86894000;5.39848000;2023-06-19T10:10:09;14.90;;;10.75;;
7829;SDS011;3960;51.86894000;5.39848000;2023-06-19T10:15:15;13.18;;;11.05;;
7829;SDS011;3960;51.86894000;5.39848000;2023-06-19T10:17:47;15.20;;;9.38;;
7829;SDS011;3960;51.86894000;5.39848000;2023-06-19T10:20:32;12.10;;;9.23;;
7829;SDS011;3960;51.86894000;5.39848000;2023-06-19T10:23:15;17.02;;;9.55;;
7829;SDS011;3960;51.86894000;5.39848000;2023-06-19T10:25:45;13.65;;;10.60;;
7829;SDS011;3960;51.86894000;5.39848000;2023-06-19T10:33:18;14.43;;;10.38;;
7829;SDS011;3960;51.86894000;5.39848000;2023-06-19T10:35:43;12.38;;;9.95;;
7829;SDS011;3960;51.86894000;5.39848000;2023-06-19T10:38:09;10.93;;;9.27;;
7829;SDS011;3960;51.86894000;5.39848000;2023-06-19T10:40:36;12.88;;;10.10;;
7829;SDS011;3960;51.86894000;5.39848000;2023-06-19T10:43:02;13.60;;;10.10;;
7829;SDS011;3960;51.86894000;5.39848000;2023-06-19T10:45:29;14.93;;;9.00;;
7829;SDS011;3960;51.86894000;5.39848000;2023-06-19T10:47:58;12.30;;;9.63;;
7829;SDS011;3960;51.86894000;5.39848000;2023-06-19T10:50:29;12.93;;;9.95;;
7829;SDS011;3960;51.86894000;5.39848000;2023-06-19T10:52:55;12.32;;;9.73;;
7829;SDS011;3960;51.86894000;5.39848000;2023-06-19T10:55:20;13.23;;;10.07;;
7829;SDS011;3960;51.86894000;5.39848000;2023-06-19T10:57:49;14.30;;;9.48;;
7829;SDS011;3960;51.86894000;5.39848000;2023-06-19T11:00:25;12.35;;;10.73;;
7829;SDS011;3960;51.86894000;5.39848000;2023-06-19T11:02:56;13.65;;;10.32;;
7829;SDS011;3960;51.86894000;5.39848000;2023-06-19T11:05:25;11.98;;;9.25;;
7829;SDS011;3960;51.86894000;5.39848000;2023-06-19T11:08:16;13.95;;;9.85;;
7829;SDS011;3960;51.86894000;5.39848000;2023-06-19T11:10:43;13.23;;;10.20;;
7829;SDS011;3960;51.86894000;5.39848000;2023-06-19T11:13:12;14.07;;;10.23;;
7829;SDS011;3960;51.86894000;5.39848000;2023-06-19T11:15:42;17.65;;;10.80;;
7829;SDS011;3960;51.86894000;5.39848000;2023-06-19T11:18:08;13.40;;;10.65;;
7829;SDS011;3960;51.86894000;5.39848000;2023-06-19T11:20:43;12.10;;;10.80;;
7829;SDS011;3960;51.86894000;5.39848000;2023-06-19T11:23:24;11.27;;;9.80;;
7829;SDS011;3960;51.86894000;5.39848000;2023-06-19T11:25:50;14.32;;;11.00;;
7829;SDS011;3960;51.86894000;5.39848000;2023-06-19T11:28:16;14.55;;;10.10;;
7829;SDS011;3960;51.86894000;5.39848000;2023-06-19T11:30:48;12.05;;;9.73;;
7829;SDS011;3960;51.86894000;5.39848000;2023-06-19T11:33:22;12.55;;;9.98;;
7829;SDS011;3960;51.86894000;5.39848000;2023-06-19T11:35:51;12.27;;;10.70;;
7829;SDS011;3960;51.86894000;5.39848000;2023-06-19T11:38:19;11.35;;;9.20;;
7829;SDS011;3960;51.86894000;5.39848000;2023-06-19T11:40:46;21.20;;;11.05;;
7829;SDS011;3960;51.86894000;5.39848000;2023-06-19T11:46:05;13.63;;;11.02;;
7829;SDS011;3960;51.86894000;5.39848000;2023-06-19T11:48:31;12.68;;;11.07;;
7829;SDS011;3960;51.86894000;5.39848000;2023-06-19T11:50:57;16.30;;;9.50;;
7829;SDS011;3960;51.86894000;5.39848000;2023-06-19T11:53:22;14.77;;;9.02;;
7829;SDS011;3960;51.86894000;5.39848000;2023-06-19T11:55:49;12.48;;;10.13;;
7829;SDS011;3960;51.86894000;5.39848000;2023-06-19T11:58:15;12.15;;;9.32;;
7829;SDS011;3960;51.86894000;5.39848000;2023-06-19T12:00:41;13.38;;;9.68;;
7829;SDS011;3960;51.86894000;5.39848000;2023-06-19T12:03:08;13.05;;;9.32;;
7829;SDS011;3960;51.86894000;5.39848000;2023-06-19T12:05:36;12.63;;;9.68;;
7829;SDS011;3960;51.86894000;5.39848000;2023-06-19T12:08:02;15.45;;;9.05;;
7829;SDS011;3960;51.86894000;5.39848000;2023-06-19T12:10:29;11.23;;;9.15;;
7829;SDS011;3960;51.86894000;5.39848000;2023-06-19T12:12:54;10.88;;;9.65;;
7829;SDS011;3960;51.86894000;5.39848000;2023-06-19T12:15:20;14.23;;;9.70;;
7829;SDS011;3960;51.86894000;5.39848000;2023-06-19T12:17:45;10.32;;;8.15;;
7829;SDS011;3960;51.86894000;5.39848000;2023-06-19T12:20:11;15.30;;;9.13;;
7829;SDS011;3960;51.86894000;5.39848000;2023-06-19T12:22:38;10.77;;;8.60;;
7829;SDS011;3960;51.86894000;5.39848000;2023-06-19T12:25:04;9.52;;;8.52;;
7829;SDS011;3960;51.86894000;5.39848000;2023-06-19T12:27:29;10.88;;;8.15;;
7829;SDS011;3960;51.86894000;5.39848000;2023-06-19T12:29:55;10.57;;;8.68;;
7829;SDS011;3960;51.86894000;5.39848000;2023-06-19T12:32:20;10.60;;;8.90;;
7829;SDS011;3960;51.86894000;5.39848000;2023-06-19T12:34:46;12.77;;;9.02;;
7829;SDS011;3960;51.86894000;5.39848000;2023-06-19T12:37:15;10.27;;;9.18;;
7829;SDS011;3960;51.86894000;5.39848000;2023-06-19T12:42:07;18.05;;;9.95;;
7829;SDS011;3960;51.86894000;5.39848000;2023-06-19T12:44:33;13.50;;;9.73;;
7829;SDS011;3960;51.86894000;5.39848000;2023-06-19T12:46:58;13.35;;;9.30;;
7829;SDS011;3960;51.86894000;5.39848000;2023-06-19T12:49:28;11.88;;;9.38;;
7829;SDS011;3960;51.86894000;5.39848000;2023-06-19T12:51:54;11.73;;;9.48;;
7829;SDS011;3960;51.86894000;5.39848000;2023-06-19T12:54:19;15.38;;;9.30;;
7829;SDS011;3960;51.86894000;5.39848000;2023-06-19T12:56:45;13.93;;;8.05;;
7829;SDS011;3960;51.86894000;5.39848000;2023-06-19T12:59:10;9.75;;;7.82;;
7829;SDS011;3960;51.86894000;5.39848000;2023-06-19T13:01:35;12.07;;;8.30;;
7829;SDS011;3960;51.86894000;5.39848000;2023-06-19T13:04:01;11.52;;;7.85;;
7829;SDS011;3960;51.86894000;5.39848000;2023-06-19T13:06:26;12.90;;;8.80;;
7829;SDS011;3960;51.86894000;5.39848000;2023-06-19T13:08:55;9.65;;;8.43;;
7829;SDS011;3960;51.86894000;5.39848000;2023-06-19T13:11:20;10.07;;;8.60;;
7829;SDS011;3960;51.86894000;5.39848000;2023-06-19T13:13:45;11.70;;;9.32;;
7829;SDS011;3960;51.86894000;5.39848000;2023-06-19T13:16:13;10.63;;;9.15;;
7829;SDS011;3960;51.86894000;5.39848000;2023-06-19T13:18:41;13.07;;;9.57;;
7829;SDS011;3960;51.86894000;5.39848000;2023-06-19T13:21:06;10.98;;;8.63;;
7829;SDS011;3960;51.86894000;5.39848000;2023-06-19T13:23:31;10.27;;;8.32;;
7829;SDS011;3960;51.86894000;5.39848000;2023-06-19T13:25:57;10.05;;;8.88;;
7829;SDS011;3960;51.86894000;5.39848000;2023-06-19T13:28:22;11.73;;;9.27;;
7829;SDS011;3960;51.86894000;5.39848000;2023-06-19T13:30:49;13.35;;;9.45;;